Time;durP1;ratioP1;P1;durP2;ratioP2;P2;SDS_P1;SDS_P2;PMS_P1;PMS_P2;Temp;Humidity;BMP_temperature;BMP_pressure;BME280_temperature;BME280_humidity;BME280_pressure;Samples;Min_cycle;Max_cycle;Signal;HPM_P1;HPM_P2
2022/05/23 00:01:21;;;;;;;2.50;2.30;;;;;;;;;;5011584;28;20199;-66
2022/05/23 00:03:48;;;;;;;2.13;2.03;;;;;;;;;;5013350;28;20210;-66
2022/05/23 00:06:19;;;;;;;2.10;1.93;;;;;;;;;;5007621;28;20208;-66
2022/05/23 00:08:50;;;;;;;2.70;2.07;;;;;;;;;;5012932;28;20719;-66
2022/05/23 00:11:18;;;;;;;3.40;3.10;;;;;;;;;;5030975;28;20199;-66
2022/05/23 00:13:47;;;;;;;4.67;3.67;;;;;;;;;;5008257;28;20290;-66
2022/05/23 00:16:17;;;;;;;3.00;2.70;;;;;;;;;;5013523;28;20202;-65
2022/05/23 00:18:44;;;;;;;2.40;2.20;;;;;;;;;;5012663;28;20440;-66
2022/05/23 00:21:12;;;;;;;2.20;2.10;;;;;;;;;;5022890;28;20245;-67
2022/05/23 00:23:39;;;;;;;2.07;1.97;;;;;;;;;;5010529;28;20265;-66
2022/05/23 00:26:07;;;;;;;3.67;2.30;;;;;;;;;;5007950;28;20206;-65
2022/05/23 00:28:34;;;;;;;3.03;2.17;;;;;;;;;;5013414;28;20203;-66
2022/05/23 00:31:01;;;;;;;2.47;2.10;;;;;;;;;;5013301;28;20242;-66
2022/05/23 00:36:15;;;;;;;2.50;2.30;;;;;;;;;;5023061;28;20235;-66
2022/05/23 00:38:42;;;;;;;3.07;2.30;;;;;;;;;;5005220;28;20211;-66
2022/05/23 00:44:05;;;;;;;5.40;3.30;;;;;;;;;;5031004;28;20257;-66
2022/05/23 00:46:34;;;;;;;3.90;3.30;;;;;;;;;;5011998;28;20203;-66
2022/05/23 00:49:05;;;;;;;3.47;2.33;;;;;;;;;;5013206;28;20245;-66
2022/05/23 00:51:33;;;;;;;2.50;2.30;;;;;;;;;;5013890;28;20237;-67
2022/05/23 00:54:02;;;;;;;3.17;2.30;;;;;;;;;;5012651;28;20214;-66
2022/05/23 00:56:38;;;;;;;4.00;2.57;;;;;;;;;;5011349;28;20273;-66
2022/05/23 00:59:05;;;;;;;4.00;2.50;;;;;;;;;;5009085;28;20285;-66
2022/05/23 01:01:35;;;;;;;2.40;2.20;;;;;;;;;;5009514;28;20203;-66
2022/05/23 01:04:04;;;;;;;2.30;2.10;;;;;;;;;;5011002;28;20613;-66
2022/05/23 01:06:32;;;;;;;3.43;2.30;;;;;;;;;;5012303;28;20721;-66
2022/05/23 01:09:00;;;;;;;2.20;2.07;;;;;;;;;;5011776;28;20234;-66
2022/05/23 01:11:27;;;;;;;2.50;2.30;;;;;;;;;;5007653;28;20204;-66
2022/05/23 01:13:55;;;;;;;2.53;2.33;;;;;;;;;;5007012;28;20609;-64
2022/05/23 01:16:23;;;;;;;2.63;2.40;;;;;;;;;;4993415;28;20210;-67
2022/05/23 01:18:51;;;;;;;2.80;2.60;;;;;;;;;;5004788;28;20226;-67
2022/05/23 01:21:29;;;;;;;3.57;2.63;;;;;;;;;;5009083;28;20195;-67
2022/05/23 01:24:23;;;;;;;3.07;2.83;;;;;;;;;;5008837;28;20207;-66
2022/05/23 01:26:51;;;;;;;2.40;2.20;;;;;;;;;;5008056;28;20195;-65
2022/05/23 01:29:19;;;;;;;2.40;2.23;;;;;;;;;;5008490;28;20585;-65
2022/05/23 01:31:46;;;;;;;2.57;2.47;;;;;;;;;;5007023;28;20258;-66
2022/05/23 01:34:14;;;;;;;3.10;2.60;;;;;;;;;;5012691;28;20260;-65
2022/05/23 01:36:41;;;;;;;3.30;2.50;;;;;;;;;;5011943;28;20277;-65
2022/05/23 01:39:08;;;;;;;2.57;2.37;;;;;;;;;;5010298;28;20227;-66
2022/05/23 01:41:35;;;;;;;3.23;2.53;;;;;;;;;;5010758;28;20658;-67
2022/05/23 01:44:06;;;;;;;2.50;2.30;;;;;;;;;;5012034;28;20668;-65
2022/05/23 01:46:33;;;;;;;2.23;2.13;;;;;;;;;;5014447;28;20222;-66
2022/05/23 01:49:01;;;;;;;2.67;2.47;;;;;;;;;;5018464;28;20589;-67
2022/05/23 01:51:28;;;;;;;2.50;2.30;;;;;;;;;;5013182;28;20206;-67
2022/05/23 01:53:56;;;;;;;2.73;2.53;;;;;;;;;;5012616;28;20206;-66
2022/05/23 01:56:23;;;;;;;2.67;2.53;;;;;;;;;;5012320;28;20211;-66
2022/05/23 02:01:41;;;;;;;3.07;2.40;;;;;;;;;;5010645;28;20258;-66
2022/05/23 02:04:09;;;;;;;2.47;2.33;;;;;;;;;;4992943;28;20210;-66
2022/05/23 02:06:37;;;;;;;3.23;2.13;;;;;;;;;;5008902;28;20215;-66
2022/05/23 02:09:04;;;;;;;2.50;2.30;;;;;;;;;;5008337;28;20234;-66
2022/05/23 02:11:31;;;;;;;3.53;2.30;;;;;;;;;;5008615;28;20210;-66
2022/05/23 02:13:59;;;;;;;4.87;3.17;;;;;;;;;;5008987;28;20211;-66
2022/05/23 02:16:27;;;;;;;3.30;2.90;;;;;;;;;;5008957;28;20685;-65
2022/05/23 02:18:55;;;;;;;2.60;2.40;;;;;;;;;;5006876;28;20585;-66
2022/05/23 02:21:22;;;;;;;4.17;2.80;;;;;;;;;;5009513;28;20246;-65
2022/05/23 02:23:50;;;;;;;3.23;2.40;;;;;;;;;;5010860;28;20612;-66
2022/05/23 02:26:17;;;;;;;2.53;2.33;;;;;;;;;;4992573;28;20211;-66
2022/05/23 02:28:44;;;;;;;2.37;2.27;;;;;;;;;;4991916;28;20203;-66
2022/05/23 02:31:12;;;;;;;2.80;2.60;;;;;;;;;;4992729;28;20231;-66
2022/05/23 02:33:41;;;;;;;2.87;2.40;;;;;;;;;;5010007;28;20646;-68
2022/05/23 02:36:09;;;;;;;2.57;2.30;;;;;;;;;;4995610;28;20645;-67
2022/05/23 02:38:36;;;;;;;2.60;2.40;;;;;;;;;;5013712;28;20290;-65
2022/05/23 02:41:04;;;;;;;3.17;2.37;;;;;;;;;;4996314;28;20227;-66
2022/05/23 02:43:31;;;;;;;2.63;2.43;;;;;;;;;;4996609;28;20208;-65
2022/05/23 02:45:58;;;;;;;2.80;2.60;;;;;;;;;;4996633;28;20215;-67
2022/05/23 02:48:26;;;;;;;3.13;2.40;;;;;;;;;;4997030;28;20216;-66
2022/05/23 02:50:53;;;;;;;3.07;2.47;;;;;;;;;;5012097;28;20227;-67
2022/05/23 02:53:21;;;;;;;2.60;2.40;;;;;;;;;;5011959;28;20208;-67
2022/05/23 02:55:48;;;;;;;3.33;2.50;;;;;;;;;;5011506;28;20219;-66
2022/05/23 02:58:16;;;;;;;2.43;2.23;;;;;;;;;;4995947;28;20215;-65
2022/05/23 03:00:44;;;;;;;3.40;2.53;;;;;;;;;;4995742;28;20638;-67
2022/05/23 03:03:11;;;;;;;2.40;2.20;;;;;;;;;;4995928;28;20739;-67
2022/05/23 03:05:46;;;;;;;2.30;2.10;;;;;;;;;;5012855;28;20250;-66
2022/05/23 03:08:15;;;;;;;2.40;2.20;;;;;;;;;;5009274;28;20637;-66
2022/05/23 03:10:42;;;;;;;2.20;2.00;;;;;;;;;;5011662;28;20763;-66
2022/05/23 03:13:10;;;;;;;4.00;2.23;;;;;;;;;;5006023;28;20297;-67
2022/05/23 03:15:37;;;;;;;5.00;2.30;;;;;;;;;;5014901;28;20700;-64
2022/05/23 03:18:05;;;;;;;2.80;2.37;;;;;;;;;;5009295;28;20207;-65
2022/05/23 03:20:33;;;;;;;3.40;2.10;;;;;;;;;;5014645;28;20734;-66
2022/05/23 03:28:35;;;;;;;2.77;2.10;;;;;;;;;;5032588;28;20630;-65
2022/05/23 03:31:04;;;;;;;2.43;2.20;;;;;;;;;;5016895;28;20226;-66
2022/05/23 03:33:32;;;;;;;2.23;2.10;;;;;;;;;;5017133;28;20274;-66
2022/05/23 03:36:00;;;;;;;2.60;2.37;;;;;;;;;;5014920;28;20701;-65
2022/05/23 03:38:27;;;;;;;4.03;2.27;;;;;;;;;;5014515;28;20210;-66
2022/05/23 03:40:55;;;;;;;2.43;2.30;;;;;;;;;;5014356;28;20293;-66
2022/05/23 03:43:22;;;;;;;2.57;2.37;;;;;;;;;;5014377;28;20210;-65
2022/05/23 03:45:50;;;;;;;3.63;2.13;;;;;;;;;;5013430;28;20203;-67
2022/05/23 03:48:17;;;;;;;2.27;2.17;;;;;;;;;;5012929;28;20724;-66
2022/05/23 03:50:45;;;;;;;3.43;3.23;;;;;;;;;;5013157;28;20594;-66
2022/05/23 03:53:13;;;;;;;3.17;2.17;;;;;;;;;;5014180;28;20301;-67
2022/05/23 03:55:40;;;;;;;2.33;2.13;;;;;;;;;;5032049;28;20297;-65
2022/05/23 03:58:07;;;;;;;2.63;2.43;;;;;;;;;;5014247;28;20211;-66
2022/05/23 04:00:35;;;;;;;2.20;2.00;;;;;;;;;;5013769;28;20622;-66
2022/05/23 04:03:02;;;;;;;2.50;2.30;;;;;;;;;;5013939;28;20206;-66
2022/05/23 04:05:30;;;;;;;2.97;2.07;;;;;;;;;;5012938;28;20207;-67
2022/05/23 04:07:57;;;;;;;3.00;2.20;;;;;;;;;;5013716;28;20206;-67
2022/05/23 04:10:24;;;;;;;2.40;2.20;;;;;;;;;;4999552;28;20648;-66
2022/05/23 04:12:52;;;;;;;2.90;2.70;;;;;;;;;;4994374;28;20417;-66
2022/05/23 04:15:19;;;;;;;3.53;2.40;;;;;;;;;;5011507;28;20613;-66
2022/05/23 04:17:47;;;;;;;2.90;2.70;;;;;;;;;;4993664;28;20254;-66
2022/05/23 04:20:14;;;;;;;2.57;2.37;;;;;;;;;;5003138;28;20697;-66
2022/05/23 04:22:42;;;;;;;4.20;2.50;;;;;;;;;;5010542;28;20211;-66
2022/05/23 04:25:09;;;;;;;3.03;2.83;;;;;;;;;;5022321;28;20207;-65
2022/05/23 04:27:37;;;;;;;4.53;2.70;;;;;;;;;;5013090;28;20282;-65
2022/05/23 04:30:06;;;;;;;2.70;2.50;;;;;;;;;;5013431;28;20242;-66
2022/05/23 04:35:20;;;;;;;16.67;8.30;;;;;;;;;;5030700;28;20238;-67
2022/05/23 04:37:49;;;;;;;6.43;4.50;;;;;;;;;;5002992;28;20270;-66
2022/05/23 04:40:18;;;;;;;4.63;4.00;;;;;;;;;;5015984;28;20584;-66
2022/05/23 04:42:45;;;;;;;3.60;2.80;;;;;;;;;;4998573;28;20203;-66
2022/05/23 04:45:13;;;;;;;3.00;2.70;;;;;;;;;;5013958;28;20203;-65
2022/05/23 04:50:27;;;;;;;3.90;2.97;;;;;;;;;;5030310;28;20219;-66
2022/05/23 04:52:56;;;;;;;3.60;2.73;;;;;;;;;;5013017;28;20557;-67
2022/05/23 04:55:23;;;;;;;3.33;3.00;;;;;;;;;;5011995;28;20261;-66
2022/05/23 04:57:52;;;;;;;3.23;3.03;;;;;;;;;;5012315;28;20621;-66
2022/05/23 05:00:21;;;;;;;4.00;3.10;;;;;;;;;;5012520;28;20834;-66
2022/05/23 05:02:49;;;;;;;4.40;2.70;;;;;;;;;;5010628;28;20699;-67
2022/05/23 05:05:17;;;;;;;2.63;2.30;;;;;;;;;;5024222;28;20203;-65
2022/05/23 05:07:45;;;;;;;3.97;2.57;;;;;;;;;;5014302;28;20253;-66
2022/05/23 05:10:13;;;;;;;4.80;2.83;;;;;;;;;;5022451;28;20231;-66
2022/05/23 05:12:41;;;;;;;2.87;2.63;;;;;;;;;;5012409;28;20224;-66
2022/05/23 05:15:08;;;;;;;3.10;2.73;;;;;;;;;;5013867;28;20207;-67
2022/05/23 05:17:36;;;;;;;4.20;2.50;;;;;;;;;;5013541;28;20578;-66
2022/05/23 05:20:04;;;;;;;2.97;2.70;;;;;;;;;;5011151;28;20289;-65
2022/05/23 05:22:31;;;;;;;3.97;2.80;;;;;;;;;;5020219;28;20206;-67
2022/05/23 05:24:59;;;;;;;3.10;2.70;;;;;;;;;;5012747;28;20207;-66
2022/05/23 05:27:26;;;;;;;2.90;2.70;;;;;;;;;;5012181;28;20202;-65
2022/05/23 05:29:53;;;;;;;2.70;2.50;;;;;;;;;;4999857;28;20262;-66
2022/05/23 05:32:27;;;;;;;3.47;2.70;;;;;;;;;;5006949;28;20206;-66
2022/05/23 05:34:58;;;;;;;3.30;3.00;;;;;;;;;;5012421;28;20202;-66
2022/05/23 05:37:32;;;;;;;3.87;2.90;;;;;;;;;;5010937;28;20214;-64
2022/05/23 05:40:02;;;;;;;4.20;3.23;;;;;;;;;;5004117;28;20282;-66
2022/05/23 05:42:33;;;;;;;5.20;3.90;;;;;;;;;;5012657;28;20528;-67
2022/05/23 05:45:04;;;;;;;7.50;5.20;;;;;;;;;;5011712;28;20746;-64
2022/05/23 05:47:33;;;;;;;3.90;2.60;;;;;;;;;;4993208;28;20628;-66
2022/05/23 05:50:05;;;;;;;2.67;2.47;;;;;;;;;;4998115;28;20280;-66
2022/05/23 05:52:34;;;;;;;4.07;2.80;;;;;;;;;;5011634;28;20203;-66
2022/05/23 05:55:02;;;;;;;3.80;2.70;;;;;;;;;;5004006;28;20245;-66
2022/05/23 05:57:30;;;;;;;3.07;2.40;;;;;;;;;;5012142;28;20314;-66
2022/05/23 05:59:57;;;;;;;2.87;2.67;;;;;;;;;;5012258;28;20223;-65
2022/05/23 06:02:25;;;;;;;3.57;2.57;;;;;;;;;;5028412;28;20230;-66
2022/05/23 06:04:53;;;;;;;2.77;2.30;;;;;;;;;;5010724;28;20195;-66
2022/05/23 06:12:55;;;;;;;3.17;2.53;;;;;;;;;;5034033;28;20461;-67
2022/05/23 06:15:24;;;;;;;3.90;2.53;;;;;;;;;;5016056;28;20203;-68
2022/05/23 06:17:52;;;;;;;3.93;2.53;;;;;;;;;;5016239;28;20435;-66
2022/05/23 06:20:20;;;;;;;2.60;2.23;;;;;;;;;;5009030;28;20223;-65
2022/05/23 06:22:47;;;;;;;2.90;2.40;;;;;;;;;;5013473;28;20195;-65
2022/05/23 06:25:14;;;;;;;3.42;2.63;;;;;;;;;;5023982;28;20199;-66
2022/05/23 06:27:42;;;;;;;2.80;2.60;;;;;;;;;;5025473;28;20691;-66
2022/05/23 06:30:10;;;;;;;3.63;2.50;;;;;;;;;;5015842;28;20235;-65
2022/05/23 06:32:38;;;;;;;2.72;2.50;;;;;;;;;;5015115;28;20256;-66
2022/05/23 06:35:09;;;;;;;4.00;2.80;;;;;;;;;;5009891;28;20203;-66
2022/05/23 06:37:37;;;;;;;3.00;2.75;;;;;;;;;;5013425;28;20207;-66
2022/05/23 06:40:06;;;;;;;2.60;2.40;;;;;;;;;;5009628;28;20233;-66
2022/05/23 06:42:34;;;;;;;3.38;2.72;;;;;;;;;;5015181;28;20218;-66
2022/05/23 06:45:02;;;;;;;2.60;2.40;;;;;;;;;;5022522;28;20631;-66
2022/05/23 06:47:29;;;;;;;2.80;2.60;;;;;;;;;;5011000;28;20203;-66
2022/05/23 06:49:57;;;;;;;2.92;2.60;;;;;;;;;;5012166;28;20263;-67
2022/05/23 06:52:24;;;;;;;3.20;2.50;;;;;;;;;;5024994;28;20253;-65
2022/05/23 06:54:52;;;;;;;2.45;2.25;;;;;;;;;;5020202;28;20203;-65
2022/05/23 06:57:19;;;;;;;2.35;2.15;;;;;;;;;;5010794;28;20203;-66
2022/05/23 06:59:46;;;;;;;3.08;2.65;;;;;;;;;;5009955;28;20223;-66
2022/05/23 07:02:14;;;;;;;5.53;3.75;;;;;;;;;;5015130;28;20257;-66
2022/05/23 07:12:59;;;;;;;2.85;2.38;;;;;;;;;;5031475;28;20644;-65
2022/05/23 07:15:27;;;;;;;2.85;2.38;;;;;;;;;;5015099;28;20217;-66
2022/05/23 07:17:55;;;;;;;3.30;2.63;;;;;;;;;;5032123;28;20600;-65
2022/05/23 07:20:22;;;;;;;4.07;2.30;;;;;;;;;;5010249;28;20231;-66
2022/05/23 07:22:49;;;;;;;4.07;2.15;;;;;;;;;;5010103;28;20583;-66
2022/05/23 07:25:17;;;;;;;2.38;2.10;;;;;;;;;;5010810;28;20208;-66
2022/05/23 07:27:44;;;;;;;3.10;2.40;;;;;;;;;;5010564;28;20207;-66
2022/05/23 07:30:12;;;;;;;2.80;2.60;;;;;;;;;;4995761;28;20234;-65
2022/05/23 07:32:39;;;;;;;2.85;2.40;;;;;;;;;;5013291;28;20689;-66
2022/05/23 07:35:07;;;;;;;3.58;2.80;;;;;;;;;;5014763;28;20260;-66
2022/05/23 07:37:34;;;;;;;4.15;2.67;;;;;;;;;;5013713;28;20257;-65
2022/05/23 07:40:02;;;;;;;3.00;2.70;;;;;;;;;;5013856;28;20288;-65
2022/05/23 07:42:36;;;;;;;4.40;2.58;;;;;;;;;;5014137;28;20261;-66
2022/05/23 07:45:05;;;;;;;3.90;2.40;;;;;;;;;;5004321;28;20229;-65
2022/05/23 07:47:32;;;;;;;3.28;2.60;;;;;;;;;;5014633;28;20290;-66
2022/05/23 07:50:00;;;;;;;4.25;2.67;;;;;;;;;;5013180;28;20219;-65
2022/05/23 07:52:27;;;;;;;2.97;2.67;;;;;;;;;;5014365;28;20613;-65
2022/05/23 08:00:34;;;;;;;3.15;2.85;;;;;;;;;;5031893;28;20231;-66
2022/05/23 08:03:01;;;;;;;3.85;2.60;;;;;;;;;;5012934;28;20614;-65
2022/05/23 08:05:28;;;;;;;2.60;2.40;;;;;;;;;;5011376;28;20203;-66
2022/05/23 08:07:56;;;;;;;4.68;2.72;;;;;;;;;;5010901;28;20274;-66
2022/05/23 08:10:24;;;;;;;5.00;2.85;;;;;;;;;;5013718;28;20226;-65
2022/05/23 08:12:54;;;;;;;3.33;3.03;;;;;;;;;;5014107;28;20207;-65
2022/05/23 08:15:26;;;;;;;3.50;2.75;;;;;;;;;;5009773;28;20274;-66
2022/05/23 08:17:54;;;;;;;6.72;3.35;;;;;;;;;;5010923;28;20204;-65
2022/05/23 08:20:25;;;;;;;4.15;2.80;;;;;;;;;;4997683;28;20228;-65
2022/05/23 08:22:55;;;;;;;4.30;2.85;;;;;;;;;;5013452;28;20288;-65
2022/05/23 08:25:23;;;;;;;3.42;3.13;;;;;;;;;;5010477;28;20208;-66
2022/05/23 08:27:50;;;;;;;4.45;3.10;;;;;;;;;;4996046;28;20254;-66
2022/05/23 08:30:18;;;;;;;3.90;3.38;;;;;;;;;;4993630;28;20231;-67
2022/05/23 08:32:45;;;;;;;8.00;3.97;;;;;;;;;;4999998;28;20563;-66
2022/05/23 08:35:13;;;;;;;7.90;3.85;;;;;;;;;;5010452;28;20206;-66
2022/05/23 08:37:41;;;;;;;5.53;3.88;;;;;;;;;;5024714;28;20206;-66
2022/05/23 08:40:09;;;;;;;5.55;3.90;;;;;;;;;;5012753;28;20226;-63
2022/05/23 08:42:42;;;;;;;3.78;3.40;;;;;;;;;;5030925;28;20226;-66
2022/05/23 08:45:15;;;;;;;4.25;3.55;;;;;;;;;;5003706;28;20234;-66
2022/05/23 08:47:47;;;;;;;4.05;3.65;;;;;;;;;;5012684;28;20198;-66
2022/05/23 08:50:16;;;;;;;5.32;3.50;;;;;;;;;;5003493;28;20292;-67
2022/05/23 08:53:00;;;;;;;5.50;4.05;;;;;;;;;;5009472;28;20628;-66
2022/05/23 08:55:32;;;;;;;5.25;3.42;;;;;;;;;;4994025;28;20203;-66
2022/05/23 08:58:14;;;;;;;4.90;3.47;;;;;;;;;;5004607;28;20569;-66
2022/05/23 09:00:43;;;;;;;5.45;3.88;;;;;;;;;;5013006;28;20233;-66
2022/05/23 09:03:13;;;;;;;4.88;3.40;;;;;;;;;;5012592;28;20236;-66
2022/05/23 09:05:53;;;;;;;7.30;4.20;;;;;;;;;;5012897;28;20301;-66
2022/05/23 09:08:44;;;;;;;4.50;3.15;;;;;;;;;;5014175;28;20760;-65
2022/05/23 09:11:31;;;;;;;4.07;2.95;;;;;;;;;;5009456;28;20212;-65
2022/05/23 09:13:58;;;;;;;5.32;3.83;;;;;;;;;;5013138;28;20211;-65
2022/05/23 09:16:30;;;;;;;5.13;3.38;;;;;;;;;;5013336;28;20292;-66
2022/05/23 09:18:58;;;;;;;5.75;4.20;;;;;;;;;;5012570;28;20397;-67
2022/05/23 09:22:12;;;;;;;4.55;3.70;;;;;;;;;;5026347;28;20237;-66
2022/05/23 09:24:15;;;;;;;4.82;3.92;;;;;;;;;;5025566;28;20257;-65
2022/05/23 09:26:44;;;;;;;6.03;3.88;;;;;;;;;;5011170;28;20219;-66
2022/05/23 09:29:12;;;;;;;5.90;3.95;;;;;;;;;;5011630;28;20704;-67
2022/05/23 09:31:45;;;;;;;4.88;4.22;;;;;;;;;;5026335;28;20677;-65
2022/05/23 09:34:31;;;;;;;6.13;4.80;;;;;;;;;;5021296;28;20231;-66
2022/05/23 09:37:00;;;;;;;4.68;3.90;;;;;;;;;;5011852;28;20237;-66
2022/05/23 09:39:29;;;;;;;6.53;4.80;;;;;;;;;;5012615;28;20723;-66
2022/05/23 09:47:44;;;;;;;6.30;4.40;;;;;;;;;;5033696;28;20678;-66
2022/05/23 09:50:38;;;;;;;6.65;4.50;;;;;;;;;;5015591;28;20692;-65
2022/05/23 09:53:27;;;;;;;5.45;4.30;;;;;;;;;;5013033;28;20209;-66
2022/05/23 09:56:20;;;;;;;6.55;5.00;;;;;;;;;;5017242;28;20210;-67
2022/05/23 09:58:47;;;;;;;6.50;4.70;;;;;;;;;;5013551;28;20198;-65
2022/05/23 10:01:24;;;;;;;6.03;4.63;;;;;;;;;;5008215;28;20211;-65
2022/05/23 10:03:51;;;;;;;5.00;4.47;;;;;;;;;;5009128;28;20256;-65
2022/05/23 10:06:20;;;;;;;5.35;4.40;;;;;;;;;;5016891;28;20203;-66
2022/05/23 10:08:48;;;;;;;7.50;4.78;;;;;;;;;;5015548;28;20262;-66
2022/05/23 10:11:19;;;;;;;6.10;5.05;;;;;;;;;;5015293;28;20199;-67
2022/05/23 10:13:52;;;;;;;7.47;5.15;;;;;;;;;;5012656;28;20199;-66
2022/05/23 10:16:28;;;;;;;5.95;4.70;;;;;;;;;;5015829;28;20683;-66
2022/05/23 10:18:55;;;;;;;7.85;4.60;;;;;;;;;;5012583;28;20206;-66
2022/05/23 10:21:28;;;;;;;5.38;4.20;;;;;;;;;;5012322;28;20210;-66
2022/05/23 10:24:26;;;;;;;4.47;4.05;;;;;;;;;;5011762;28;20211;-65
2022/05/23 10:26:53;;;;;;;4.97;3.95;;;;;;;;;;5012277;28;20200;-66
2022/05/23 10:29:39;;;;;;;5.30;4.20;;;;;;;;;;5011648;28;20720;-68
2022/05/23 10:32:12;;;;;;;7.82;4.97;;;;;;;;;;5010308;28;20723;-66
2022/05/23 10:34:39;;;;;;;6.75;4.10;;;;;;;;;;5012214;28;20226;-65
2022/05/23 10:37:09;;;;;;;5.30;3.90;;;;;;;;;;5009681;28;20206;-66
2022/05/23 10:42:29;;;;;;;3.92;3.50;;;;;;;;;;5025210;28;20218;-66
2022/05/23 10:45:11;;;;;;;5.68;3.70;;;;;;;;;;5015145;28;20203;-66
2022/05/23 10:47:39;;;;;;;5.05;3.42;;;;;;;;;;5005912;28;20206;-67
2022/05/23 10:50:39;;;;;;;6.07;3.53;;;;;;;;;;5015463;28;20233;-67
2022/05/23 10:53:25;;;;;;;4.60;3.47;;;;;;;;;;4943867;28;20207;-66
2022/05/23 10:55:52;;;;;;;8.05;3.70;;;;;;;;;;5017711;28;20572;-66
2022/05/23 10:58:23;;;;;;;5.53;3.50;;;;;;;;;;5015413;28;20742;-66
2022/05/23 11:00:53;;;;;;;6.07;3.70;;;;;;;;;;5015253;28;20234;-65
2022/05/23 11:03:20;;;;;;;5.82;3.35;;;;;;;;;;5011598;28;20224;-67
2022/05/23 11:06:00;;;;;;;3.80;3.50;;;;;;;;;;5011392;28;20203;-67
2022/05/23 11:08:30;;;;;;;7.72;4.70;;;;;;;;;;5025834;28;20203;-66
2022/05/23 11:11:14;;;;;;;11.38;6.80;;;;;;;;;;5014353;28;20653;-65
2022/05/23 11:13:59;;;;;;;7.30;4.50;;;;;;;;;;5013588;28;20569;-66
2022/05/23 11:16:46;;;;;;;8.48;4.07;;;;;;;;;;5014465;28;20206;-66
2022/05/23 11:19:16;;;;;;;8.00;3.30;;;;;;;;;;5014449;28;20265;-66
2022/05/23 11:21:54;;;;;;;10.05;5.43;;;;;;;;;;5014002;28;20231;-66
2022/05/23 11:24:45;;;;;;;5.72;3.65;;;;;;;;;;5011014;28;20250;-65
2022/05/23 11:35:33;;;;;;;6.50;2.90;;;;;;;;;;5031369;28;20622;-66
2022/05/23 11:38:01;;;;;;;7.03;3.92;;;;;;;;;;5010693;28;20203;-65
2022/05/23 11:40:48;;;;;;;4.28;3.08;;;;;;;;;;5008033;28;20474;-65
2022/05/23 11:43:17;;;;;;;6.55;2.70;;;;;;;;;;5009805;28;20750;-66
2022/05/23 11:46:04;;;;;;;3.78;2.20;;;;;;;;;;5013909;28;20290;-66
2022/05/23 11:48:40;;;;;;;4.43;2.20;;;;;;;;;;5010745;28;20200;-66
2022/05/23 11:51:23;;;;;;;4.50;1.80;;;;;;;;;;5009493;28;20200;-66
2022/05/23 11:53:55;;;;;;;3.90;1.90;;;;;;;;;;5012821;28;20199;-66
2022/05/23 11:56:33;;;;;;;3.72;2.00;;;;;;;;;;5014262;28;20397;-66
2022/05/23 11:59:01;;;;;;;4.35;2.35;;;;;;;;;;5006127;28;20663;-65
2022/05/23 12:01:30;;;;;;;4.32;2.10;;;;;;;;;;5009530;28;20207;-65
2022/05/23 12:03:58;;;;;;;3.78;2.00;;;;;;;;;;5014048;28;20394;-66
2022/05/23 12:06:26;;;;;;;3.25;1.80;;;;;;;;;;5010359;28;20203;-66
2022/05/23 12:09:12;;;;;;;5.40;2.13;;;;;;;;;;5012955;28;20793;-66
2022/05/23 12:11:40;;;;;;;2.08;1.70;;;;;;;;;;5013745;28;20206;-66
2022/05/23 12:14:40;;;;;;;3.30;1.70;;;;;;;;;;5013881;28;20209;-66
2022/05/23 12:17:13;;;;;;;2.83;1.58;;;;;;;;;;5006649;28;20635;-66
2022/05/23 12:19:40;;;;;;;4.15;1.90;;;;;;;;;;4994226;28;20224;-67
2022/05/23 12:22:14;;;;;;;3.45;2.35;;;;;;;;;;5014829;28;20227;-67
2022/05/23 12:25:02;;;;;;;3.90;1.88;;;;;;;;;;5012724;28;20195;-67
2022/05/23 12:27:35;;;;;;;4.57;1.92;;;;;;;;;;5013525;28;20234;-67
2022/05/23 12:30:24;;;;;;;9.77;2.40;;;;;;;;;;5017897;28;20235;-67
2022/05/23 12:32:53;;;;;;;6.22;1.90;;;;;;;;;;4995497;28;20335;-67
2022/05/23 12:35:24;;;;;;;4.55;2.30;;;;;;;;;;5009971;28;20211;-67
2022/05/23 12:38:12;;;;;;;6.82;1.88;;;;;;;;;;5011343;28;20219;-67
2022/05/23 12:40:58;;;;;;;4.85;2.10;;;;;;;;;;5012882;28;20318;-68
2022/05/23 12:43:29;;;;;;;5.18;1.70;;;;;;;;;;5009691;28;20231;-67
2022/05/23 12:46:12;;;;;;;3.78;2.05;;;;;;;;;;4993729;28;20199;-67
2022/05/23 12:48:42;;;;;;;3.97;1.80;;;;;;;;;;4993505;28;20204;-67
2022/05/23 12:51:28;;;;;;;3.55;1.92;;;;;;;;;;5003076;28;20276;-67
2022/05/23 12:54:17;;;;;;;3.40;2.08;;;;;;;;;;5013754;28;20211;-67
2022/05/23 12:56:48;;;;;;;6.22;2.03;;;;;;;;;;4993409;28;20677;-67
2022/05/23 12:59:31;;;;;;;7.28;1.90;;;;;;;;;;4992953;28;20225;-67
2022/05/23 13:02:05;;;;;;;4.72;1.80;;;;;;;;;;5013323;28;20265;-66
2022/05/23 13:04:36;;;;;;;4.32;1.80;;;;;;;;;;5010898;28;20211;-67
2022/05/23 13:07:10;;;;;;;4.68;1.92;;;;;;;;;;5012648;28;20202;-67
2022/05/23 13:09:41;;;;;;;4.18;1.73;;;;;;;;;;5008116;28;20219;-66
2022/05/23 13:12:10;;;;;;;4.70;2.08;;;;;;;;;;5009133;28;20658;-67
2022/05/23 13:14:54;;;;;;;3.42;1.80;;;;;;;;;;5009358;28;20415;-66
2022/05/23 13:17:48;;;;;;;2.38;1.65;;;;;;;;;;5009220;28;20200;-67
2022/05/23 13:23:02;;;;;;;4.30;1.83;;;;;;;;;;5022472;28;20234;-67
2022/05/23 13:25:30;;;;;;;4.85;1.90;;;;;;;;;;5006734;28;20208;-68
2022/05/23 13:27:58;;;;;;;4.28;2.10;;;;;;;;;;5011095;28;20203;-68
2022/05/23 13:30:27;;;;;;;3.53;1.90;;;;;;;;;;5013135;28;20239;-66
2022/05/23 13:33:14;;;;;;;4.88;2.08;;;;;;;;;;5011553;28;20634;-67
2022/05/23 13:35:43;;;;;;;4.97;1.83;;;;;;;;;;5030498;28;20198;-67
2022/05/23 13:38:24;;;;;;;4.13;1.98;;;;;;;;;;5009143;28;20195;-67
2022/05/23 13:40:53;;;;;;;5.65;1.90;;;;;;;;;;5012069;28;20225;-65
2022/05/23 13:43:21;;;;;;;5.30;2.08;;;;;;;;;;5012170;28;20238;-67
2022/05/23 13:45:56;;;;;;;6.35;2.10;;;;;;;;;;5007958;28;20680;-67
2022/05/23 13:48:26;;;;;;;4.57;1.88;;;;;;;;;;5008775;28;20299;-67
2022/05/23 13:50:57;;;;;;;4.68;2.10;;;;;;;;;;5009282;28;20654;-68
2022/05/23 13:53:43;;;;;;;4.45;1.73;;;;;;;;;;5009619;28;20202;-67
2022/05/23 13:56:11;;;;;;;3.75;2.22;;;;;;;;;;4996060;28;20223;-67
2022/05/23 13:58:45;;;;;;;4.72;2.30;;;;;;;;;;5010971;28;20664;-67
2022/05/23 14:01:36;;;;;;;4.13;1.65;;;;;;;;;;4993055;28;20211;-67
2022/05/23 14:04:09;;;;;;;3.85;1.67;;;;;;;;;;4988951;28;20277;-67
2022/05/23 14:06:43;;;;;;;3.45;1.75;;;;;;;;;;5012859;28;20210;-67
2022/05/23 14:09:12;;;;;;;6.00;1.90;;;;;;;;;;5008913;28;20621;-67
2022/05/23 14:11:40;;;;;;;4.40;2.25;;;;;;;;;;5011667;28;20653;-67
2022/05/23 14:14:16;;;;;;;5.10;1.90;;;;;;;;;;5030761;28;20199;-67
2022/05/23 14:16:50;;;;;;;5.47;2.13;;;;;;;;;;5011488;28;20218;-66
2022/05/23 14:19:23;;;;;;;7.50;2.40;;;;;;;;;;5011938;28;20229;-67
2022/05/23 14:22:03;;;;;;;6.25;1.80;;;;;;;;;;5012696;28;20211;-66
2022/05/23 14:24:32;;;;;;;3.97;2.25;;;;;;;;;;5011698;28;20229;-68
2022/05/23 14:27:13;;;;;;;5.35;2.08;;;;;;;;;;5003552;28;20261;-67
2022/05/23 14:29:40;;;;;;;6.85;2.20;;;;;;;;;;5010096;28;20251;-67
2022/05/23 14:32:12;;;;;;;4.32;2.40;;;;;;;;;;5015542;28;20199;-66
2022/05/23 14:34:41;;;;;;;5.88;2.53;;;;;;;;;;5014618;28;20611;-67
2022/05/23 14:37:11;;;;;;;6.82;3.17;;;;;;;;;;5013885;28;20668;-67
2022/05/23 14:39:38;;;;;;;7.03;2.70;;;;;;;;;;5012769;28;20224;-66
2022/05/23 14:42:27;;;;;;;6.95;2.60;;;;;;;;;;5015131;28;20211;-68
2022/05/23 14:45:13;;;;;;;7.15;2.33;;;;;;;;;;5023854;28;20499;-66
2022/05/23 14:47:53;;;;;;;4.07;2.05;;;;;;;;;;5017372;28;20661;-68
2022/05/23 14:50:22;;;;;;;6.00;2.47;;;;;;;;;;5010615;28;20219;-67
2022/05/23 14:55:49;;;;;;;5.47;2.28;;;;;;;;;;5044756;28;20207;-65
2022/05/23 15:01:04;;;;;;;5.70;2.20;;;;;;;;;;5031823;28;20246;-67
2022/05/23 15:03:34;;;;;;;5.22;2.30;;;;;;;;;;5015170;28;20281;-67
2022/05/23 15:06:03;;;;;;;4.30;2.33;;;;;;;;;;5015203;28;20211;-67
2022/05/23 15:08:30;;;;;;;6.40;2.20;;;;;;;;;;5010860;28;20704;-66
2022/05/23 15:10:58;;;;;;;5.20;2.13;;;;;;;;;;5015086;28;20222;-67
2022/05/23 15:13:26;;;;;;;7.18;2.80;;;;;;;;;;5015230;28;20575;-67
2022/05/23 15:16:02;;;;;;;4.68;2.33;;;;;;;;;;5015121;28;20214;-66
2022/05/23 15:18:31;;;;;;;5.10;2.38;;;;;;;;;;5014965;28;20202;-67
2022/05/23 15:20:59;;;;;;;4.30;2.50;;;;;;;;;;5014634;28;20230;-65
2022/05/23 15:23:26;;;;;;;10.77;3.15;;;;;;;;;;5011654;28;20227;-66
2022/05/23 15:25:54;;;;;;;12.57;3.17;;;;;;;;;;5014245;28;20399;-66
2022/05/23 15:28:21;;;;;;;6.05;2.67;;;;;;;;;;5031967;28;20447;-66
2022/05/23 15:30:50;;;;;;;6.22;2.35;;;;;;;;;;5014568;28;20273;-67
2022/05/23 15:33:17;;;;;;;6.60;2.25;;;;;;;;;;5014740;28;20310;-66
2022/05/23 15:35:45;;;;;;;8.48;2.22;;;;;;;;;;5014294;28;20579;-66
2022/05/23 15:38:13;;;;;;;7.50;1.95;;;;;;;;;;5017355;28;20206;-65
2022/05/23 15:40:41;;;;;;;6.53;2.35;;;;;;;;;;5010950;28;20740;-65
2022/05/23 15:43:12;;;;;;;5.65;2.13;;;;;;;;;;4993910;28;20235;-65
2022/05/23 15:45:42;;;;;;;8.55;2.95;;;;;;;;;;4994657;28;20286;-66
2022/05/23 15:48:10;;;;;;;6.10;2.70;;;;;;;;;;5000554;28;20719;-66
2022/05/23 15:50:43;;;;;;;3.95;2.40;;;;;;;;;;5010108;28;20763;-66
2022/05/23 15:53:10;;;;;;;3.65;2.15;;;;;;;;;;5010639;28;20207;-65
2022/05/23 15:55:44;;;;;;;5.05;2.72;;;;;;;;;;5010539;28;20211;-66
2022/05/23 15:58:12;;;;;;;6.30;3.33;;;;;;;;;;5013645;28;20211;-66
2022/05/23 16:00:41;;;;;;;5.45;2.80;;;;;;;;;;5013811;28;20233;-66
2022/05/23 16:03:09;;;;;;;4.57;2.90;;;;;;;;;;5013999;28;20263;-66
2022/05/23 16:05:38;;;;;;;4.82;3.25;;;;;;;;;;5013937;28;20199;-65
2022/05/23 16:08:05;;;;;;;5.68;3.90;;;;;;;;;;5013167;28;20202;-66
2022/05/23 16:10:38;;;;;;;6.68;3.92;;;;;;;;;;5013360;28;20594;-66